createdAt,value
2018-06-14T00:00:35.714Z,0.00
2018-06-14T00:01:35.739Z,0.00
2018-06-14T00:02:35.827Z,0.00
2018-06-14T00:03:35.808Z,0.00
2018-06-14T00:05:35.867Z,0.00
2018-06-14T00:06:36.107Z,0.00
2018-06-14T00:07:36.142Z,0.00
2018-06-14T00:08:36.322Z,0.00
2018-06-14T00:09:36.597Z,0.00
2018-06-14T00:10:36.029Z,0.00
2018-06-14T00:11:36.110Z,0.00
2018-06-14T00:12:36.093Z,0.00
2018-06-14T00:14:36.164Z,0.00
2018-06-14T00:15:36.301Z,0.00
2018-06-14T00:16:36.524Z,0.00
2018-06-14T00:17:36.337Z,0.00
2018-06-14T00:18:36.340Z,0.00
2018-06-14T00:19:36.365Z,0.00
2018-06-14T00:20:36.555Z,0.00
2018-06-14T00:21:36.428Z,0.00
2018-06-14T00:22:36.463Z,0.00
2018-06-14T00:23:36.741Z,0.00
2018-06-14T00:24:36.526Z,0.00
2018-06-14T00:25:36.557Z,0.00
2018-06-14T00:26:36.890Z,0.00
2018-06-14T00:27:36.620Z,0.00
2018-06-14T00:28:36.611Z,0.00
2018-06-14T00:29:36.635Z,0.00
2018-06-14T00:30:36.928Z,0.00
2018-06-14T00:31:36.697Z,0.00
2018-06-14T00:32:36.734Z,0.00
2018-06-14T00:33:36.807Z,0.00
2018-06-14T00:34:36.852Z,0.00
2018-06-14T00:35:36.826Z,0.00
2018-06-14T00:36:36.855Z,0.00
2018-06-14T00:37:37.237Z,0.00
2018-06-14T00:38:36.968Z,0.00
2018-06-14T00:39:37.002Z,0.00
2018-06-14T00:40:37.342Z,0.00
2018-06-14T00:41:37.067Z,0.00
2018-06-14T00:43:37.328Z,0.00
2018-06-14T00:44:37.171Z,0.00
2018-06-14T00:46:37.171Z,0.00
2018-06-14T00:47:37.208Z,0.00
2018-06-14T00:48:37.442Z,0.00
2018-06-14T00:49:37.335Z,0.00
2018-06-14T00:50:37.652Z,0.00
2018-06-14T00:51:37.539Z,0.00
2018-06-14T00:52:37.432Z,0.00
2018-06-14T00:53:37.464Z,0.00
2018-06-14T00:54:37.476Z,0.00
2018-06-14T00:55:37.610Z,0.00
2018-06-14T00:56:37.841Z,0.00
2018-06-14T00:57:38.325Z,0.00
2018-06-14T00:59:37.644Z,0.00
2018-06-14T01:00:38.173Z,0.00
2018-06-14T01:01:37.703Z,0.00
2018-06-14T01:03:38.011Z,0.00
2018-06-14T01:04:37.743Z,0.00
2018-06-14T01:05:37.820Z,0.00
2018-06-14T01:06:37.854Z,0.00
2018-06-14T01:07:38.088Z,0.00
2018-06-14T01:08:37.923Z,0.00
2018-06-14T01:09:37.955Z,0.00
2018-06-14T01:10:38.836Z,0.00
2018-06-14T01:11:38.025Z,0.00
2018-06-14T01:12:37.997Z,0.00
2018-06-14T01:13:38.077Z,0.00
2018-06-14T01:14:38.120Z,0.00
2018-06-14T01:15:38.092Z,0.00
2018-06-14T01:16:38.224Z,0.00
2018-06-14T01:17:39.071Z,0.00
2018-06-14T01:18:38.238Z,0.00
2018-06-14T01:20:38.295Z,0.00
2018-06-14T01:21:38.336Z,0.00
2018-06-14T01:23:38.399Z,0.00
2018-06-14T01:24:38.627Z,0.00
2018-06-14T01:25:38.459Z,0.00
2018-06-14T01:26:38.441Z,0.00
2018-06-14T01:27:38.471Z,0.00
2018-06-14T01:28:38.559Z,0.00
2018-06-14T01:30:38.921Z,0.00
2018-06-14T01:32:38.677Z,0.00
2018-06-14T01:33:38.910Z,0.00
2018-06-14T01:34:38.736Z,0.00
2018-06-14T01:36:39.256Z,0.00
2018-06-14T01:37:38.834Z,0.00
2018-06-14T01:38:38.865Z,0.00
2018-06-14T01:39:39.099Z,0.00
2018-06-14T01:40:39.133Z,0.00
2018-06-14T01:41:39.171Z,0.00
2018-06-14T01:43:39.475Z,0.00
2018-06-14T01:44:39.059Z,0.00
2018-06-14T01:45:39.084Z,0.00
2018-06-14T01:46:39.087Z,0.00
2018-06-14T01:47:39.102Z,0.00
2018-06-14T01:48:39.134Z,0.00
2018-06-14T01:49:39.663Z,0.00
2018-06-14T01:50:39.398Z,0.00
2018-06-14T01:52:39.263Z,0.00
2018-06-14T01:53:39.335Z,0.00
2018-06-14T01:54:39.580Z,0.00
2018-06-14T01:55:39.603Z,0.00
2018-06-14T01:56:39.384Z,0.00
2018-06-14T01:58:39.447Z,0.00
2018-06-14T01:59:39.528Z,0.00
2018-06-14T02:00:39.961Z,0.00
2018-06-14T02:01:39.940Z,0.00
2018-06-14T02:02:39.803Z,0.00
2018-06-14T02:03:39.650Z,0.00
2018-06-14T02:05:39.924Z,0.00
2018-06-14T02:06:39.768Z,0.00
2018-06-14T02:07:40.038Z,0.00
2018-06-14T02:08:39.813Z,0.00
2018-06-14T02:09:39.799Z,0.00
2018-06-14T02:11:39.854Z,0.00
2018-06-14T02:12:39.892Z,0.00
2018-06-14T02:13:40.214Z,0.00
2018-06-14T02:14:40.152Z,0.00
2018-06-14T02:16:40.215Z,0.00
2018-06-14T02:17:40.044Z,0.00
2018-06-14T02:18:40.081Z,0.00
2018-06-14T02:19:40.356Z,0.00
2018-06-14T02:20:40.137Z,0.00
2018-06-14T02:21:40.183Z,0.00
2018-06-14T02:22:40.199Z,0.00
2018-06-14T02:23:40.241Z,0.00
2018-06-14T02:24:40.279Z,0.00
2018-06-14T02:25:40.558Z,0.00
2018-06-14T02:26:40.325Z,0.00
2018-06-14T02:27:40.367Z,0.00
2018-06-14T02:28:40.389Z,0.00
2018-06-14T02:29:40.419Z,0.00
2018-06-14T02:30:40.454Z,0.00
2018-06-14T02:31:40.734Z,0.00
2018-06-14T02:32:40.515Z,0.00
2018-06-14T02:33:40.543Z,0.00
2018-06-14T02:34:40.580Z,0.00
2018-06-14T02:35:40.610Z,0.00
2018-06-14T02:36:40.641Z,0.00
2018-06-14T02:37:40.973Z,0.00
2018-06-14T02:38:40.704Z,0.00
2018-06-14T02:39:40.734Z,0.00
2018-06-14T02:40:40.765Z,0.00
2018-06-14T02:41:40.796Z,0.00
2018-06-14T02:42:40.828Z,0.00
2018-06-14T02:43:41.163Z,0.00
2018-06-14T02:44:40.899Z,0.00
2018-06-14T02:45:40.922Z,0.00
2018-06-14T02:46:40.958Z,0.00
2018-06-14T02:47:40.981Z,0.00
2018-06-14T02:48:41.019Z,0.00
2018-06-14T02:49:41.295Z,0.00
2018-06-14T02:50:41.077Z,0.00
2018-06-14T02:51:41.117Z,0.00
2018-06-14T02:52:41.147Z,0.00
2018-06-14T02:53:41.174Z,0.00
2018-06-14T02:54:41.201Z,0.00
2018-06-14T02:55:41.236Z,0.00
2018-06-14T02:56:41.514Z,0.00
2018-06-14T02:57:41.295Z,0.00
2018-06-14T02:58:41.331Z,0.00
2018-06-14T02:59:41.360Z,0.00
2018-06-14T03:00:41.394Z,0.00
2018-06-14T03:01:41.422Z,0.00
2018-06-14T03:02:41.497Z,0.00
2018-06-14T03:03:41.807Z,0.00
2018-06-14T03:04:41.518Z,0.00
2018-06-14T03:05:41.601Z,0.00
2018-06-14T03:07:41.607Z,0.00
2018-06-14T03:08:41.992Z,0.00
2018-06-14T03:09:41.679Z,0.00
2018-06-14T03:10:41.952Z,0.00
2018-06-14T03:11:41.752Z,0.00
2018-06-14T03:12:41.819Z,0.00
2018-06-14T03:13:41.798Z,0.00
2018-06-14T03:14:41.841Z,0.00
2018-06-14T03:15:41.860Z,0.00
2018-06-14T03:16:41.907Z,0.00
2018-06-14T03:17:42.169Z,0.00
2018-06-14T03:18:41.952Z,0.00
2018-06-14T03:19:41.988Z,0.00
2018-06-14T03:20:42.035Z,0.00
2018-06-14T03:21:42.055Z,0.00
2018-06-14T03:22:42.076Z,0.00
2018-06-14T03:23:42.108Z,0.00
2018-06-14T03:24:42.564Z,0.00
2018-06-14T03:25:42.172Z,0.00
2018-06-14T03:26:42.201Z,0.00
2018-06-14T03:27:42.232Z,0.00
2018-06-14T03:28:42.467Z,5.63
2018-06-14T03:29:42.344Z,5.63
2018-06-14T03:30:42.378Z,5.63
2018-06-14T03:31:42.662Z,5.63
2018-06-14T03:32:42.388Z,5.63
2018-06-14T03:33:42.419Z,5.63
2018-06-14T03:34:42.462Z,5.63
2018-06-14T03:35:42.539Z,5.63
2018-06-14T03:36:42.518Z,5.63
2018-06-14T03:37:42.545Z,5.63
2018-06-14T03:38:42.828Z,5.63
2018-06-14T03:39:42.607Z,5.63
2018-06-14T03:40:42.651Z,5.63
2018-06-14T03:41:42.716Z,5.63
2018-06-14T03:42:42.708Z,11.25
2018-06-14T03:43:42.733Z,11.25
2018-06-14T03:44:42.926Z,11.25
2018-06-14T03:45:43.247Z,11.25
2018-06-14T03:46:42.830Z,11.25
2018-06-14T03:47:42.858Z,11.25
2018-06-14T03:48:42.890Z,11.25
2018-06-14T03:49:42.922Z,11.25
2018-06-14T03:50:42.960Z,11.25
2018-06-14T03:51:42.985Z,11.25
2018-06-14T03:52:43.311Z,11.25
2018-06-14T03:53:43.061Z,11.25
2018-06-14T03:54:43.083Z,11.25
2018-06-14T03:56:43.142Z,16.88
2018-06-14T03:57:43.170Z,16.88
2018-06-14T03:58:43.200Z,16.88
2018-06-14T03:59:43.536Z,16.88
2018-06-14T04:00:43.618Z,16.88
2018-06-14T04:01:43.309Z,16.88
2018-06-14T04:02:43.326Z,16.88
2018-06-14T04:03:43.358Z,16.88
2018-06-14T04:04:43.390Z,16.88
2018-06-14T04:05:43.420Z,16.88
2018-06-14T04:06:43.756Z,16.88
2018-06-14T04:07:43.482Z,16.88
2018-06-14T04:08:43.518Z,16.88
2018-06-14T04:09:43.544Z,16.88
2018-06-14T04:11:43.611Z,16.88
2018-06-14T04:12:43.650Z,16.88
2018-06-14T04:13:43.673Z,22.50
2018-06-14T04:14:43.707Z,22.50
2018-06-14T04:15:43.736Z,22.50
2018-06-14T04:16:43.771Z,22.50
2018-06-14T04:17:44.048Z,22.50
2018-06-14T04:18:43.851Z,22.50
2018-06-14T04:19:43.861Z,22.50
2018-06-14T04:20:43.897Z,22.50
2018-06-14T04:21:43.925Z,22.50
2018-06-14T04:22:43.959Z,22.50
2018-06-14T04:23:44.487Z,28.13
2018-06-14T04:24:44.029Z,28.13
2018-06-14T04:25:44.048Z,28.13
2018-06-14T04:26:44.084Z,28.13
2018-06-14T04:27:44.114Z,28.13
2018-06-14T04:28:44.141Z,28.13
2018-06-14T04:29:44.484Z,28.13
2018-06-14T04:30:44.204Z,28.13
2018-06-14T04:31:44.245Z,33.75
2018-06-14T04:32:44.327Z,33.75
2018-06-14T04:33:44.297Z,33.75
2018-06-14T04:34:44.329Z,33.75
2018-06-14T04:35:44.610Z,33.75
2018-06-14T04:36:44.398Z,33.75
2018-06-14T04:37:44.425Z,33.75
2018-06-14T04:38:44.455Z,33.75
2018-06-14T04:39:44.540Z,33.75
2018-06-14T04:40:44.992Z,39.38
2018-06-14T04:41:44.810Z,39.38
2018-06-14T04:42:44.581Z,39.38
2018-06-14T04:43:44.623Z,39.38
2018-06-14T04:44:44.746Z,39.38
2018-06-14T04:45:44.697Z,39.38
2018-06-14T04:46:44.707Z,39.38
2018-06-14T04:47:44.738Z,39.38
2018-06-14T04:48:44.770Z,39.38
2018-06-14T04:49:44.803Z,39.38
2018-06-14T04:50:44.839Z,39.38
2018-06-14T04:51:44.872Z,39.38
2018-06-14T04:52:44.903Z,39.38
2018-06-14T04:53:44.930Z,39.38
2018-06-14T04:54:44.962Z,39.38
2018-06-14T04:55:44.996Z,39.38
2018-06-14T04:56:45.025Z,39.38
2018-06-14T04:57:45.059Z,39.38
2018-06-14T04:58:45.086Z,39.38
2018-06-14T04:59:45.425Z,45.00
2018-06-14T05:00:45.154Z,45.00
2018-06-14T05:01:45.197Z,45.00
2018-06-14T05:02:45.260Z,45.00
2018-06-14T05:03:45.251Z,45.00
2018-06-14T05:04:45.282Z,45.00
2018-06-14T05:05:45.564Z,45.00
2018-06-14T05:06:45.342Z,45.00
2018-06-14T05:07:45.444Z,45.00
2018-06-14T05:08:45.410Z,45.00
2018-06-14T05:09:45.435Z,45.00
2018-06-14T05:10:45.469Z,45.00
2018-06-14T05:11:45.803Z,45.00
2018-06-14T05:12:45.532Z,50.63
2018-06-14T05:13:45.637Z,50.63
2018-06-14T05:14:45.597Z,50.63
2018-06-14T05:15:45.635Z,50.63
2018-06-14T05:16:45.661Z,50.63
2018-06-14T05:17:46.006Z,50.63
2018-06-14T05:18:45.726Z,50.63
2018-06-14T05:19:45.755Z,50.63
2018-06-14T05:20:45.948Z,50.63
2018-06-14T05:21:45.819Z,50.63
2018-06-14T05:22:45.852Z,50.63
2018-06-14T05:23:46.186Z,50.63
2018-06-14T05:24:45.915Z,56.25
2018-06-14T05:25:45.996Z,56.25
2018-06-14T05:26:45.984Z,56.25
2018-06-14T05:27:46.214Z,56.25
2018-06-14T05:28:46.105Z,56.25
2018-06-14T05:29:46.080Z,56.25
2018-06-14T05:30:46.463Z,56.25
2018-06-14T05:31:46.138Z,56.25
2018-06-14T05:32:46.171Z,56.25
2018-06-14T05:33:46.252Z,56.25
2018-06-14T05:34:46.282Z,56.25
2018-06-14T05:35:46.267Z,56.25
2018-06-14T05:36:46.357Z,56.25
2018-06-14T05:37:46.585Z,56.25
2018-06-14T05:38:46.413Z,56.25
2018-06-14T05:39:46.555Z,56.25
2018-06-14T05:40:46.428Z,56.25
2018-06-14T05:41:46.460Z,56.25
2018-06-14T05:42:46.538Z,56.25
2018-06-14T05:43:46.575Z,56.25
2018-06-14T05:44:46.863Z,56.25
2018-06-14T05:45:46.644Z,56.25
2018-06-14T05:46:46.666Z,56.25
2018-06-14T05:47:46.725Z,56.25
2018-06-14T05:48:46.710Z,56.25
2018-06-14T05:49:46.975Z,56.25
2018-06-14T05:50:46.750Z,56.25
2018-06-14T05:51:47.136Z,56.25
2018-06-14T05:52:46.860Z,56.25
2018-06-14T05:53:46.845Z,56.25
2018-06-14T05:54:46.879Z,56.25
2018-06-14T05:55:46.965Z,56.25
2018-06-14T05:56:47.154Z,56.25
2018-06-14T05:57:47.530Z,56.25
2018-06-14T05:58:47.343Z,56.25
2018-06-14T05:59:47.092Z,56.25
2018-06-14T06:00:47.077Z,56.25
2018-06-14T06:01:47.659Z,56.25
2018-06-14T06:02:47.206Z,61.88
2018-06-14T06:03:47.427Z,61.88
2018-06-14T06:04:47.200Z,61.88
2018-06-14T06:05:47.283Z,61.88
2018-06-14T06:06:47.323Z,61.88
2018-06-14T06:07:47.551Z,61.88
2018-06-14T06:08:47.591Z,61.88
2018-06-14T06:09:47.363Z,61.88
2018-06-14T06:10:47.399Z,61.88
2018-06-14T06:11:47.684Z,61.88
2018-06-14T06:12:47.461Z,61.88
2018-06-14T06:13:47.699Z,61.88
2018-06-14T06:14:47.529Z,61.88
2018-06-14T06:16:47.649Z,61.88
2018-06-14T06:17:47.668Z,61.88
2018-06-14T06:18:48.260Z,61.88
2018-06-14T06:19:47.746Z,61.88
2018-06-14T06:20:47.723Z,61.88
2018-06-14T06:21:47.749Z,61.88
2018-06-14T06:22:47.866Z,61.88
2018-06-14T06:23:47.826Z,61.88
2018-06-14T06:24:48.113Z,61.88
2018-06-14T06:26:48.239Z,61.88
2018-06-14T06:27:47.994Z,61.88
2018-06-14T06:28:47.978Z,61.88
2018-06-14T06:29:48.008Z,67.50
2018-06-14T06:30:48.045Z,61.88
2018-06-14T06:31:48.076Z,61.88
2018-06-14T06:32:48.170Z,67.50
2018-06-14T06:33:48.443Z,67.50
2018-06-14T06:34:48.273Z,67.50
2018-06-14T06:35:48.204Z,61.88
2018-06-14T06:36:48.236Z,67.50
2018-06-14T06:37:48.273Z,67.50
2018-06-14T06:38:48.702Z,67.50
2018-06-14T06:39:48.333Z,67.50
2018-06-14T06:40:48.677Z,61.88
2018-06-14T06:41:48.447Z,61.88
2018-06-14T06:42:48.790Z,61.88
2018-06-14T06:43:48.515Z,67.50
2018-06-14T06:44:48.758Z,67.50
2018-06-14T06:45:48.589Z,67.50
2018-06-14T06:46:48.614Z,67.50
2018-06-14T06:47:49.198Z,67.50
2018-06-14T06:48:48.830Z,67.50
2018-06-14T06:49:48.662Z,67.50
2018-06-14T06:50:48.694Z,67.50
2018-06-14T06:51:48.775Z,67.50
2018-06-14T06:52:48.808Z,67.50
2018-06-14T06:53:49.289Z,67.50
2018-06-14T06:54:48.825Z,67.50
2018-06-14T06:55:48.912Z,67.50
2018-06-14T06:56:49.249Z,67.50
2018-06-14T06:57:48.969Z,67.50
2018-06-14T06:59:49.291Z,67.50
2018-06-14T07:00:49.592Z,67.50
2018-06-14T07:01:49.427Z,67.50
2018-06-14T07:02:49.135Z,67.50
2018-06-14T07:03:49.189Z,67.50
2018-06-14T07:04:49.356Z,67.50
2018-06-14T07:05:49.489Z,67.50
2018-06-14T07:06:49.235Z,67.50
2018-06-14T07:07:49.461Z,67.50
2018-06-14T07:08:49.280Z,73.13
2018-06-14T07:09:49.367Z,73.13
2018-06-14T07:10:49.397Z,78.75
2018-06-14T07:11:50.038Z,78.75
2018-06-14T07:12:49.411Z,78.75
2018-06-14T07:13:49.494Z,78.75
2018-06-14T07:14:49.681Z,73.13
2018-06-14T07:15:49.866Z,67.50
2018-06-14T07:17:49.881Z,61.88
2018-06-14T07:18:49.675Z,61.88
2018-06-14T07:19:49.712Z,61.88
2018-06-14T07:21:49.847Z,61.88
2018-06-14T07:22:49.787Z,61.88
2018-06-14T07:23:50.126Z,61.88
2018-06-14T07:24:49.854Z,61.88
2018-06-14T07:25:49.844Z,61.88
2018-06-14T07:26:49.879Z,61.88
2018-06-14T07:27:49.953Z,61.88
2018-06-14T07:28:49.987Z,61.88
2018-06-14T07:29:50.283Z,61.88
2018-06-14T07:30:50.003Z,61.88
2018-06-14T07:31:50.096Z,61.88
2018-06-14T07:32:50.118Z,61.88
2018-06-14T07:33:50.401Z,61.88
2018-06-14T07:34:50.182Z,61.88
2018-06-14T07:35:50.469Z,61.88
2018-06-14T07:36:50.561Z,61.88
2018-06-14T07:37:50.256Z,61.88
2018-06-14T07:38:50.353Z,61.88
2018-06-14T07:39:50.299Z,61.88
2018-06-14T07:40:50.394Z,61.88
2018-06-14T07:41:50.714Z,61.88
2018-06-14T07:42:50.445Z,61.88
2018-06-14T07:43:50.693Z,61.88
2018-06-14T07:44:50.641Z,61.88
2018-06-14T07:45:50.495Z,61.88
2018-06-14T07:46:50.790Z,61.88
2018-06-14T07:47:50.867Z,67.50
2018-06-14T07:48:50.613Z,67.50
2018-06-14T07:49:50.688Z,67.50
2018-06-14T07:50:51.020Z,67.50
2018-06-14T07:51:51.046Z,67.50
2018-06-14T07:52:50.733Z,67.50
2018-06-14T07:53:51.125Z,67.50
2018-06-14T07:55:50.916Z,67.50
2018-06-14T07:56:50.936Z,67.50
2018-06-14T07:57:50.904Z,67.50
2018-06-14T07:58:50.985Z,67.50
2018-06-14T08:02:51.388Z,67.50
2018-06-14T08:04:51.195Z,67.50
2018-06-14T08:05:51.410Z,73.13
2018-06-14T08:06:51.243Z,73.13
2018-06-14T08:07:51.269Z,73.13
2018-06-14T08:08:51.308Z,73.13
2018-06-14T08:09:51.538Z,73.13
2018-06-14T08:12:51.456Z,73.13
2018-06-14T08:15:51.787Z,78.75
2018-06-14T08:16:51.797Z,78.75
2018-06-14T08:17:51.607Z,78.75
2018-06-14T08:18:51.597Z,78.75
2018-06-14T08:19:51.628Z,84.38
2018-06-14T08:20:51.915Z,84.38
2018-06-14T08:21:51.745Z,84.38
2018-06-14T08:22:52.042Z,90.00
2018-06-14T08:23:51.808Z,95.63
2018-06-14T08:24:51.787Z,95.63
2018-06-14T08:25:51.893Z,106.88
2018-06-14T08:27:51.936Z,118.13
2018-06-14T08:28:52.272Z,118.13
2018-06-14T08:29:52.317Z,118.13
2018-06-14T08:30:52.039Z,106.88
2018-06-14T08:31:52.089Z,101.25
2018-06-14T08:32:52.055Z,95.63
2018-06-14T08:33:52.640Z,90.00
2018-06-14T08:34:52.120Z,90.00
2018-06-14T08:35:52.466Z,90.00
2018-06-14T08:36:52.691Z,84.38
2018-06-14T08:37:52.278Z,73.13
2018-06-14T08:38:52.305Z,73.13
2018-06-14T08:39:52.847Z,78.75
2018-06-14T08:40:52.324Z,78.75
2018-06-14T08:41:52.409Z,84.38
2018-06-14T08:42:52.637Z,90.00
2018-06-14T08:43:52.717Z,90.00
2018-06-14T08:44:52.544Z,90.00
2018-06-14T08:46:52.573Z,95.63
2018-06-14T08:48:52.684Z,106.88
2018-06-14T08:49:52.670Z,112.50
2018-06-14T08:50:52.938Z,118.13
2018-06-14T08:51:52.764Z,118.13
2018-06-14T08:52:52.785Z,118.13
2018-06-14T08:53:52.817Z,112.50
2018-06-14T08:54:53.356Z,112.50
2018-06-14T08:55:53.306Z,101.25
2018-06-14T08:58:53.222Z,90.00
2018-06-14T08:59:53.007Z,95.63
2018-06-14T09:01:53.981Z,106.88
2018-06-14T09:02:53.312Z,112.50
2018-06-14T09:03:53.294Z,112.50
2018-06-14T09:04:53.479Z,106.88
2018-06-14T09:05:53.408Z,112.50
2018-06-14T09:06:53.517Z,106.88
2018-06-14T09:07:53.277Z,112.50
2018-06-14T09:08:53.257Z,112.50
2018-06-14T09:09:53.299Z,106.88
2018-06-14T09:10:53.880Z,106.88
2018-06-14T09:11:53.667Z,106.88
2018-06-14T09:12:53.649Z,101.25
2018-06-14T09:13:53.492Z,101.25
2018-06-14T09:14:53.503Z,101.25
2018-06-14T09:16:54.008Z,90.00
2018-06-14T09:17:53.922Z,90.00
2018-06-14T09:19:53.944Z,95.63
2018-06-14T09:20:53.709Z,95.63
2018-06-14T09:21:53.945Z,101.25
2018-06-14T09:22:53.784Z,101.25
2018-06-14T09:23:54.019Z,101.25
2018-06-14T09:24:54.051Z,101.25
2018-06-14T09:25:54.085Z,95.63
2018-06-14T09:26:55.013Z,95.63
2018-06-14T09:27:53.955Z,95.63
2018-06-14T09:28:54.415Z,95.63
2018-06-14T09:29:54.051Z,101.25
2018-06-14T09:30:54.755Z,101.25
2018-06-14T09:32:54.569Z,95.63
2018-06-14T09:33:54.153Z,95.63
2018-06-14T09:34:54.182Z,95.63
2018-06-14T09:35:54.445Z,101.25
2018-06-14T09:36:54.250Z,95.63
2018-06-14T09:37:55.013Z,95.63
2018-06-14T09:38:54.530Z,106.88
2018-06-14T09:39:54.874Z,112.50
2018-06-14T09:40:54.419Z,118.13
2018-06-14T09:41:54.622Z,123.75
2018-06-14T09:42:54.829Z,129.38
2018-06-14T09:43:54.487Z,146.25
2018-06-14T09:44:54.829Z,157.50
2018-06-14T09:45:55.060Z,168.75
2018-06-14T09:46:54.612Z,163.13
2018-06-14T09:48:54.668Z,146.25
2018-06-14T09:50:54.980Z,135.00
2018-06-14T09:51:55.358Z,129.38
2018-06-14T09:52:54.790Z,123.75
2018-06-14T09:53:54.827Z,129.38
2018-06-14T09:56:55.239Z,140.63
2018-06-14T09:57:55.270Z,135.00
2018-06-14T09:58:54.996Z,129.38
2018-06-14T09:59:55.758Z,118.13
2018-06-14T10:01:55.666Z,123.75
2018-06-14T10:02:55.496Z,123.75
2018-06-14T10:04:55.657Z,118.13
2018-06-14T10:05:55.442Z,118.13
2018-06-14T10:06:55.467Z,112.50
2018-06-14T10:07:55.302Z,118.13
2018-06-14T10:09:55.333Z,118.13
2018-06-14T10:10:55.603Z,123.75
2018-06-14T10:11:55.685Z,123.75
2018-06-14T10:12:55.488Z,129.38
2018-06-14T10:13:55.550Z,135.00
2018-06-14T10:14:55.548Z,135.00
2018-06-14T10:15:55.780Z,151.88
2018-06-14T10:16:55.675Z,174.38
2018-06-14T10:18:56.438Z,196.88
2018-06-14T10:19:55.742Z,196.88
2018-06-14T10:20:55.947Z,196.88
2018-06-14T10:21:55.775Z,185.63
2018-06-14T10:23:55.870Z,180.00
2018-06-14T10:24:56.076Z,180.00
2018-06-14T10:25:56.163Z,168.75
2018-06-14T10:26:55.945Z,157.50
2018-06-14T10:27:55.991Z,151.88
2018-06-14T10:28:56.220Z,151.88
2018-06-14T10:30:56.391Z,168.75
2018-06-14T10:32:56.920Z,196.88
2018-06-14T10:35:56.414Z,174.38
2018-06-14T10:36:56.288Z,157.50
2018-06-14T10:37:56.637Z,151.88
2018-06-14T10:38:56.675Z,151.88
2018-06-14T10:39:56.556Z,151.88
2018-06-14T10:41:56.480Z,151.88
2018-06-14T10:42:56.503Z,146.25
2018-06-14T10:44:56.809Z,146.25
2018-06-14T10:45:56.595Z,146.25
2018-06-14T10:48:56.701Z,146.25
2018-06-14T10:49:57.133Z,146.25
2018-06-14T10:50:57.017Z,157.50
2018-06-14T10:53:56.874Z,196.88
2018-06-14T10:54:56.852Z,196.88
2018-06-14T10:55:56.973Z,202.50
2018-06-14T10:57:57.510Z,208.13
2018-06-14T10:59:57.081Z,219.38
2018-06-14T11:00:57.111Z,219.38
2018-06-14T11:02:57.390Z,219.38
2018-06-14T11:07:57.657Z,247.50
2018-06-14T11:09:57.723Z,253.13
2018-06-14T11:10:57.462Z,258.75
2018-06-14T11:12:57.532Z,258.75
2018-06-14T11:13:57.563Z,253.13
2018-06-14T11:14:57.847Z,247.50
2018-06-14T11:16:57.865Z,264.38
2018-06-14T11:17:57.700Z,275.63
2018-06-14T11:19:57.762Z,281.25
2018-06-14T11:20:57.809Z,286.88
2018-06-14T11:22:58.733Z,292.50
2018-06-14T11:25:57.974Z,286.88
2018-06-14T11:26:58.011Z,292.50
2018-06-14T11:27:58.001Z,298.13
2018-06-14T11:28:58.082Z,303.75
2018-06-14T11:29:59.035Z,303.75
2018-06-14T11:30:58.099Z,303.75
2018-06-14T11:31:58.492Z,303.75
2018-06-14T11:32:58.175Z,303.75
2018-06-14T11:34:58.591Z,309.38
2018-06-14T11:35:58.342Z,309.38
2018-06-14T11:36:58.570Z,309.38
2018-06-14T11:37:58.343Z,315.00
2018-06-14T11:38:58.430Z,315.00
2018-06-14T11:39:58.787Z,320.63
2018-06-14T11:40:58.550Z,326.25
2018-06-14T11:41:58.554Z,320.63
2018-06-14T11:42:58.519Z,320.63
2018-06-14T11:43:58.809Z,331.88
2018-06-14T11:44:58.839Z,326.25
2018-06-14T11:45:58.636Z,326.25
2018-06-14T11:46:58.659Z,320.63
2018-06-14T11:47:58.764Z,315.00
2018-06-14T11:48:58.866Z,303.75
2018-06-14T11:49:58.779Z,292.50
2018-06-14T11:50:59.102Z,281.25
2018-06-14T11:51:58.885Z,270.00
2018-06-14T11:52:58.877Z,258.75
2018-06-14T11:53:58.907Z,247.50
2018-06-14T11:54:59.005Z,236.25
2018-06-14T11:55:59.048Z,236.25
2018-06-14T11:56:59.377Z,236.25
2018-06-14T11:58:59.336Z,236.25
2018-06-14T12:00:59.508Z,247.50
2018-06-14T12:01:59.195Z,253.13
2018-06-14T12:02:59.276Z,270.00
2018-06-14T12:03:59.314Z,292.50
2018-06-14T12:04:59.502Z,309.38
2018-06-14T12:05:59.581Z,326.25
2018-06-14T12:06:59.372Z,320.63
2018-06-14T12:07:59.452Z,326.25
2018-06-14T12:08:59.696Z,315.00
2018-06-14T12:09:59.470Z,292.50
2018-06-14T12:10:59.691Z,270.00
2018-06-14T12:11:59.542Z,241.88
2018-06-14T12:12:59.876Z,225.00
2018-06-14T12:13:59.617Z,219.38
2018-06-14T12:14:59.651Z,208.13
2018-06-14T12:15:59.951Z,213.75
2018-06-14T12:17:59.811Z,208.13
2018-06-14T12:18:59.991Z,219.38
2018-06-14T12:20:00.080Z,219.38
2018-06-14T12:21:59.949Z,225.00
2018-06-14T12:22:59.932Z,230.63
2018-06-14T12:23:59.975Z,236.25
2018-06-14T12:25:00.003Z,241.88
2018-06-14T12:26:00.390Z,253.13
2018-06-14T12:27:00.127Z,264.38
2018-06-14T12:28:00.163Z,275.63
2018-06-14T12:29:00.149Z,275.63
2018-06-14T12:30:00.232Z,270.00
2018-06-14T12:31:00.269Z,270.00
2018-06-14T12:32:00.499Z,275.63
2018-06-14T12:33:00.360Z,292.50
2018-06-14T12:34:00.318Z,320.63
2018-06-14T12:35:00.424Z,331.88
2018-06-14T12:36:00.438Z,337.50
2018-06-14T12:37:00.486Z,354.38
2018-06-14T12:38:00.836Z,365.63
2018-06-14T12:39:00.498Z,371.25
2018-06-14T12:40:00.550Z,376.88
2018-06-14T12:41:00.614Z,376.88
2018-06-14T12:42:00.617Z,376.88
2018-06-14T12:44:00.925Z,399.38
2018-06-14T12:45:00.758Z,410.63
2018-06-14T12:46:00.803Z,405.00
2018-06-14T12:47:00.801Z,410.63
2018-06-14T12:48:00.837Z,405.00
2018-06-14T12:49:00.852Z,399.38
2018-06-14T12:50:01.643Z,399.38
2018-06-14T12:51:00.932Z,399.38
2018-06-14T12:52:00.961Z,399.38
2018-06-14T12:53:01.252Z,393.75
2018-06-14T12:54:01.311Z,371.25
2018-06-14T12:55:01.070Z,376.88
2018-06-14T12:56:01.352Z,399.38
2018-06-14T12:57:01.138Z,421.88
2018-06-14T12:58:01.180Z,433.13
2018-06-14T12:59:01.208Z,421.88
2018-06-14T13:00:01.244Z,427.50
2018-06-14T13:01:01.283Z,433.13
2018-06-14T13:02:01.571Z,438.75
2018-06-14T13:03:01.711Z,438.75
2018-06-14T13:04:01.403Z,438.75
2018-06-14T13:05:01.781Z,450.00
2018-06-14T13:06:01.472Z,455.63
2018-06-14T13:07:01.508Z,466.88
2018-06-14T13:08:01.833Z,433.13
2018-06-14T13:09:01.606Z,433.13
2018-06-14T13:10:01.666Z,427.50
2018-06-14T13:11:01.646Z,433.13
2018-06-14T13:12:01.742Z,416.25
2018-06-14T13:13:01.719Z,371.25
2018-06-14T13:14:02.007Z,371.25
2018-06-14T13:15:01.792Z,410.63
2018-06-14T13:16:01.826Z,388.13
2018-06-14T13:17:01.868Z,371.25
2018-06-14T13:18:01.896Z,360.00
2018-06-14T13:19:01.994Z,360.00
2018-06-14T13:20:02.654Z,382.50
2018-06-14T13:21:02.021Z,399.38
2018-06-14T13:22:02.125Z,393.75
2018-06-14T13:23:02.080Z,371.25
2018-06-14T13:24:02.135Z,399.38
2018-06-14T13:25:02.202Z,416.25
2018-06-14T13:26:02.445Z,405.00
2018-06-14T13:27:02.235Z,382.50
2018-06-14T13:28:02.263Z,376.88
2018-06-14T13:29:02.294Z,382.50
2018-06-14T13:30:02.344Z,388.13
2018-06-14T13:31:02.404Z,405.00
2018-06-14T13:32:02.704Z,438.75
2018-06-14T13:33:02.497Z,433.13
2018-06-14T13:34:02.482Z,466.88
2018-06-14T13:35:02.515Z,556.88
2018-06-14T13:36:02.631Z,545.63
2018-06-14T13:37:02.629Z,495.00
2018-06-14T13:38:02.975Z,523.13
2018-06-14T13:39:02.914Z,556.88
2018-06-14T13:40:02.706Z,478.13
2018-06-14T13:41:02.845Z,427.50
2018-06-14T13:42:02.771Z,450.00
2018-06-14T13:43:02.878Z,483.75
2018-06-14T13:44:02.891Z,506.25
2018-06-14T13:45:02.884Z,444.38
2018-06-14T13:46:03.289Z,433.13
2018-06-14T13:47:02.983Z,365.63
2018-06-14T13:48:03.024Z,343.13
2018-06-14T13:49:03.191Z,320.63
2018-06-14T13:50:03.145Z,309.38
2018-06-14T13:51:03.177Z,315.00
2018-06-14T13:52:03.138Z,315.00
2018-06-14T13:53:03.567Z,315.00
2018-06-14T13:54:03.231Z,315.00
2018-06-14T13:55:03.490Z,315.00
2018-06-14T13:56:03.286Z,326.25
2018-06-14T13:57:03.441Z,315.00
2018-06-14T13:58:03.666Z,326.25
2018-06-14T13:59:03.598Z,371.25
2018-06-14T14:00:03.932Z,315.00
2018-06-14T14:01:04.078Z,241.88
2018-06-14T14:04:03.663Z,180.00
2018-06-14T14:05:03.976Z,168.75
2018-06-14T14:06:03.646Z,163.13
2018-06-14T14:07:04.007Z,157.50
2018-06-14T14:08:03.726Z,157.50
2018-06-14T14:09:03.808Z,151.88
2018-06-14T14:10:03.808Z,151.88
2018-06-14T14:11:03.883Z,151.88
2018-06-14T14:12:03.870Z,151.88
2018-06-14T14:13:03.903Z,151.88
2018-06-14T14:14:04.189Z,151.88
2018-06-14T14:15:03.975Z,157.50